Main page
METAR-TAF:

METAR-TAF

Airports :

Almaty, Kazakhstan

Almaty International Airport

latitude: 43-14N, longitude: 076-56E, elevation: 847 m

Current weather observation

The report was made 25 minutes ago, at 13:30 UTC
Wind 12 kt from the East/Northeast
Temperature 15°C
Humidity 55%
Pressure 1017 hPa
Visibility 10 km or more

METAR: UAAA 281330Z 06006MPS 9999 NSC 15/06 Q1017 R05R/CLRD65 NOSIG

Time: 19:55 (13:55 UTC)

Forecast

The report was made 2 hours and 55 minutes ago, at 11:00 UTC
Forecast valid from 28 at 12 UTC to 29 at 12 UTC
Wind 10 kt from the Southeast
Visibility: 3000 m
Scattered clouds at a height of 3000 ft
Broken clouds at a height of 10000 ft
mist, smoke
Temporary
from 28 at 14 UTC to 29 at 03 UTC
Visibility: 1200 m
Becoming
from 29 at 04 UTC to 29 at 05 UTC
Wind 12 kt from the North/Northeast
Visibility 10 km or more

TAF: UAAA 281100Z 2812/2912 14005MPS 3000 BR FU SCT030 BKN100 TX19/2909Z TN04/2901Z TEMPO 2814/2903 1200 BECMG 2904/2905 02006MPS 9999 NSW

Weather observations and forecasts of more than 4000 airports (METAR and TAF reports).

The available stations are represented by yellow and red dots on the map.

Hover mouse over dot to see the name of the station.

Then click to see weather observations and forecasts.

To change the map : click on the green buttons with a black cross to zoom in, on the green button with a dash to zoom out, or on the green arrows for adjacent maps.


METAR-TAF: